Terminal Aerodrome Forecast
Issued by NWS

Home | Current Version | Previous Version | Text Only | Print | Product List | Glossary On
Versions: 1 2 3 4 5 6 7 8 9 10 11 12 13 14 15
000
FTUS43 KILX 011132
TAFCMI
TAF
KCMI 011132Z 0112/0212 18005KT P6SM VCTS BKN040CB
      TEMPO 0112/0114 5SM -TSRA BR BKN040CB
     FM011500 20009KT P6SM VCTS BKN040CB
     FM020100 19005KT P6SM SKC
      TEMPO 0208/0212 4SM BR=

USA.gov is the U.S. government's official web portal to all federal, state and local government web resources and services.